createdAt,value
2022-11-17T00:00:35.447Z,99909.63
2022-11-17T00:02:37.439Z,99917.38
2022-11-17T00:04:39.404Z,99908.06
2022-11-17T00:06:41.330Z,99922.25
2022-11-17T00:08:44.221Z,99904.22
2022-11-17T00:10:46.079Z,99901.72
2022-11-17T00:13:06.381Z,99911.69
2022-11-17T00:15:08.421Z,99909.22
2022-11-17T00:17:12.996Z,99914.31
2022-11-17T00:19:34.597Z,99909.88
2022-11-17T00:21:36.551Z,99915.78
2022-11-17T00:23:47.807Z,99928.31
2022-11-17T00:25:49.999Z,99908.00
2022-11-17T00:27:52.957Z,99915.78
2022-11-17T00:29:59.069Z,99904.56
2022-11-17T00:32:19.519Z,99917.25
2022-11-17T00:34:23.541Z,99910.41
2022-11-17T00:36:26.523Z,99914.63
2022-11-17T00:38:28.386Z,99920.56
2022-11-17T00:40:30.657Z,99918.91
2022-11-17T00:42:32.635Z,99911.88
2022-11-17T00:44:34.542Z,99911.88
2022-11-17T00:46:37.744Z,99938.22
2022-11-17T00:48:39.692Z,99923.63
2022-11-17T00:50:41.482Z,99933.66
2022-11-17T00:52:43.345Z,99931.78
2022-11-17T00:54:45.156Z,99927.50
2022-11-17T00:56:48.481Z,99922.56
2022-11-17T00:58:50.340Z,99924.97
2022-11-17T01:00:53.153Z,99922.94
2022-11-17T01:02:55.034Z,99930.72
2022-11-17T01:04:58.834Z,99922.94
2022-11-17T01:07:00.736Z,99909.19
2022-11-17T01:09:24.383Z,99921.81
2022-11-17T01:11:27.831Z,99921.09
2022-11-17T01:13:30.722Z,99924.41
2022-11-17T01:15:33.983Z,99928.63
2022-11-17T01:17:35.860Z,99925.09
2022-11-17T01:19:37.680Z,99925.88
2022-11-17T01:21:39.634Z,99920.50
2022-11-17T01:23:42.933Z,99927.84
2022-11-17T01:25:44.847Z,99926.38
2022-11-17T01:27:48.104Z,99923.72
2022-11-17T01:29:49.973Z,99917.75
2022-11-17T01:31:52.826Z,99924.16
2022-11-17T01:33:55.637Z,99954.66
2022-11-17T01:36:05.571Z,99922.47
2022-11-17T01:38:07.351Z,99931.66
2022-11-17T01:40:12.283Z,99930.59
2022-11-17T01:42:17.018Z,99933.13
2022-11-17T01:44:59.550Z,99913.44
2022-11-17T01:47:01.812Z,99935.53
2022-11-17T01:49:03.654Z,99938.84
2022-11-17T01:51:06.561Z,99919.25
2022-11-17T01:53:15.558Z,99920.66
2022-11-17T01:55:19.457Z,99916.28
2022-11-17T01:57:27.661Z,99918.94
2022-11-17T01:59:38.402Z,99920.38
2022-11-17T02:01:55.981Z,99917.72
2022-11-17T02:03:58.165Z,99925.03
2022-11-17T02:06:25.188Z,99915.81
2022-11-17T02:08:30.758Z,99913.13
2022-11-17T02:10:34.688Z,99914.56
2022-11-17T02:12:37.520Z,99916.34
2022-11-17T02:14:42.439Z,99913.00
2022-11-17T02:16:44.313Z,99911.09
2022-11-17T02:18:47.252Z,99907.78
2022-11-17T02:21:11.736Z,99921.41
2022-11-17T02:23:32.059Z,99901.75
2022-11-17T02:25:50.826Z,99904.31
2022-11-17T02:28:11.420Z,99914.56
2022-11-17T02:30:16.994Z,99921.22
2022-11-17T02:32:47.686Z,99914.44
2022-11-17T02:35:14.702Z,99914.56
2022-11-17T02:37:29.566Z,99911.03
2022-11-17T02:39:45.707Z,99910.97
2022-11-17T02:42:04.589Z,99904.38
2022-11-17T02:44:14.966Z,99905.88
2022-11-17T02:46:22.353Z,99922.69
2022-11-17T02:48:37.192Z,99919.19
2022-11-17T02:50:41.518Z,99918.56
2022-11-17T02:52:43.375Z,99917.47
2022-11-17T02:54:45.269Z,99920.09
2022-11-17T02:56:47.073Z,99923.50
2022-11-17T02:58:53.070Z,99916.66
2022-11-17T03:01:04.979Z,99904.72
2022-11-17T03:03:18.745Z,99924.03
2022-11-17T03:05:35.256Z,99913.84
2022-11-17T03:07:59.951Z,99911.97
2022-11-17T03:10:16.735Z,99915.31
2022-11-17T03:12:47.132Z,99913.41
2022-11-17T03:15:03.217Z,99913.69
2022-11-17T03:17:19.414Z,99915.13
2022-11-17T03:19:35.194Z,99912.59
2022-11-17T03:21:41.135Z,99911.16
2022-11-17T03:24:21.168Z,99907.63
2022-11-17T03:26:29.649Z,99913.53
2022-11-17T03:28:34.051Z,99905.16
2022-11-17T03:30:42.210Z,99908.78
2022-11-17T03:32:52.139Z,99906.03
2022-11-17T03:34:59.355Z,99906.16
2022-11-17T03:37:05.130Z,99910.50
2022-11-17T03:39:13.845Z,99929.06
2022-11-17T03:41:18.404Z,99907.97
2022-11-17T03:43:21.671Z,99916.44
2022-11-17T03:45:34.598Z,99909.34
2022-11-17T03:50:17.029Z,99917.03
2022-11-17T03:52:21.691Z,99917.75
2022-11-17T03:54:24.928Z,99912.44
2022-11-17T03:56:45.511Z,99906.44
2022-11-17T03:59:22.222Z,99904.84
2022-11-17T04:01:27.825Z,99905.50
2022-11-17T04:03:34.500Z,99905.50
2022-11-17T04:05:37.739Z,99907.03
2022-11-17T04:07:49.223Z,99905.22
2022-11-17T04:09:51.033Z,99905.13
2022-11-17T04:12:11.491Z,99913.66
2022-11-17T04:14:31.822Z,99911.06
2022-11-17T04:16:33.631Z,99906.94
2022-11-17T04:18:35.538Z,99904.41
2022-11-17T04:20:37.475Z,99914.53
2022-11-17T04:22:39.453Z,99911.44
2022-11-17T04:24:41.297Z,99922.47
2022-11-17T04:27:01.718Z,99915.03
2022-11-17T04:29:05.611Z,99918.34
2022-11-17T04:31:19.075Z,99925.25
2022-11-17T04:33:20.914Z,99919.13
2022-11-17T04:35:22.804Z,99918.28
2022-11-17T04:37:24.689Z,99917.25
2022-11-17T04:39:26.579Z,99916.22
2022-11-17T04:41:48.603Z,99908.69
2022-11-17T04:43:50.674Z,99919.72
2022-11-17T04:45:52.421Z,99926.59
2022-11-17T04:47:54.187Z,99923.16
2022-11-17T04:49:57.023Z,99917.19
2022-11-17T04:51:59.017Z,99923.75
2022-11-17T04:54:02.389Z,99931.44
2022-11-17T04:56:05.134Z,99928.03
2022-11-17T04:58:07.962Z,99935.78
2022-11-17T05:00:10.456Z,99927.94
2022-11-17T05:02:12.290Z,99926.38
2022-11-17T05:04:36.822Z,99933.09
2022-11-17T05:06:39.863Z,99928.81
2022-11-17T05:08:42.667Z,99932.16
2022-11-17T05:11:03.393Z,99928.81
2022-11-17T05:13:31.714Z,99932.06
2022-11-17T05:15:52.342Z,99931.34
2022-11-17T05:17:54.184Z,99926.28
2022-11-17T05:19:56.789Z,99920.13
2022-11-17T05:21:58.678Z,99925.31
2022-11-17T05:24:00.517Z,99932.16
2022-11-17T05:26:03.339Z,99920.34
2022-11-17T05:28:05.456Z,99915.19
2022-11-17T05:30:08.874Z,99914.25
2022-11-17T05:32:11.771Z,99924.31
2022-11-17T05:34:17.523Z,99907.69
2022-11-17T05:36:20.138Z,99910.00
2022-11-17T05:38:22.083Z,99920.66
2022-11-17T05:40:24.978Z,99920.66
2022-11-17T05:42:27.861Z,99918.53
2022-11-17T05:44:29.800Z,99912.44
2022-11-17T05:46:31.873Z,99915.78
2022-11-17T05:48:34.319Z,99920.84
2022-11-17T05:50:36.512Z,99928.81
2022-11-17T05:52:39.738Z,99919.41
2022-11-17T05:54:41.710Z,99924.59
2022-11-17T05:57:00.539Z,99922.78
2022-11-17T05:59:11.453Z,99920.13
2022-11-17T06:01:16.331Z,99929.38
2022-11-17T06:03:25.931Z,99916.63
2022-11-17T06:05:28.059Z,99918.53
2022-11-17T06:07:31.161Z,99920.97
2022-11-17T06:09:35.341Z,99917.44
2022-11-17T06:11:37.102Z,99925.31
2022-11-17T06:13:39.105Z,99920.97
2022-11-17T06:15:41.261Z,99934.44
2022-11-17T06:18:17.327Z,99930.25
2022-11-17T06:20:28.505Z,99938.78
2022-11-17T06:22:32.214Z,99935.63
2022-11-17T06:24:35.201Z,99928.81
2022-11-17T06:26:37.666Z,99938.84
2022-11-17T06:28:42.346Z,99936.41
2022-11-17T06:30:44.709Z,99944.81
2022-11-17T06:32:48.144Z,99934.69
2022-11-17T06:34:55.621Z,99932.91
2022-11-17T06:36:58.113Z,99929.19
2022-11-17T06:39:00.958Z,99929.44
2022-11-17T06:41:08.925Z,99935.31
2022-11-17T06:43:13.858Z,99931.34
2022-11-17T06:45:15.741Z,99929.53
2022-11-17T06:47:17.579Z,99936.31
2022-11-17T06:49:19.545Z,99936.88
2022-11-17T06:51:22.474Z,99940.22
2022-11-17T06:53:26.657Z,99941.94
2022-11-17T06:55:29.167Z,99939.56
2022-11-17T06:57:34.261Z,99935.31
2022-11-17T06:59:36.102Z,99940.22
2022-11-17T07:01:39.067Z,99936.97
2022-11-17T07:03:43.187Z,99932.69
2022-11-17T07:05:45.019Z,99938.47
2022-11-17T07:07:47.040Z,99940.75
2022-11-17T07:09:50.933Z,99934.44
2022-11-17T07:11:52.858Z,99938.19
2022-11-17T07:13:54.662Z,99946.69
2022-11-17T07:16:02.921Z,99933.16
2022-11-17T07:18:04.857Z,99944.09
2022-11-17T07:20:07.444Z,99947.72
2022-11-17T07:22:09.288Z,99942.59
2022-11-17T07:24:11.216Z,99948.34
2022-11-17T07:26:14.571Z,99952.66
2022-11-17T07:28:16.480Z,99941.84
2022-11-17T07:30:18.702Z,99949.69
2022-11-17T07:32:20.588Z,99947.09
2022-11-17T07:34:23.025Z,99947.94
2022-11-17T07:36:24.847Z,99950.47
2022-11-17T07:38:26.730Z,99953.41
2022-11-17T07:40:29.938Z,99959.03
2022-11-17T07:42:32.068Z,99962.75
2022-11-17T07:44:34.547Z,99965.91
2022-11-17T07:46:49.247Z,99968.34
2022-11-17T07:48:57.918Z,99961.16
2022-11-17T07:51:05.859Z,99951.59
2022-11-17T07:53:10.064Z,99961.00
2022-11-17T07:55:18.278Z,99961.63
2022-11-17T07:57:25.996Z,99969.47
2022-11-17T07:59:53.266Z,99957.63
2022-11-17T08:02:04.650Z,99962.44
2022-11-17T08:04:08.036Z,99959.09
2022-11-17T08:06:17.693Z,99967.28
2022-11-17T08:08:21.563Z,99958.56
2022-11-17T08:10:25.100Z,99973.63
2022-11-17T08:12:26.947Z,99971.94
2022-11-17T08:14:30.105Z,99975.72
2022-11-17T08:16:32.293Z,99989.91
2022-11-17T08:18:37.294Z,99975.81
2022-11-17T08:20:41.480Z,99968.63
2022-11-17T08:22:44.395Z,99969.66
2022-11-17T08:24:46.274Z,99968.47
2022-11-17T08:26:48.102Z,99971.53
2022-11-17T08:28:53.664Z,99974.16
2022-11-17T08:31:04.416Z,99974.25
2022-11-17T08:33:08.624Z,99965.31
2022-11-17T08:35:10.598Z,99978.97
2022-11-17T08:37:12.686Z,99976.44
2022-11-17T08:39:15.600Z,99967.13
2022-11-17T08:41:17.470Z,99973.75
2022-11-17T08:43:20.311Z,99964.41
2022-11-17T08:45:22.882Z,99965.47
2022-11-17T08:47:24.763Z,99961.97
2022-11-17T08:49:26.669Z,99977.25
2022-11-17T08:51:29.529Z,99966.56
2022-11-17T08:53:31.519Z,99979.94
2022-11-17T08:55:40.925Z,99964.84
2022-11-17T08:57:44.521Z,99964.91
2022-11-17T08:59:46.400Z,99963.31
2022-11-17T09:01:48.346Z,99964.75
2022-11-17T09:03:53.474Z,99974.00
2022-11-17T09:05:55.506Z,99962.94
2022-11-17T09:08:15.879Z,99966.31
2022-11-17T09:10:21.470Z,99957.16
2022-11-17T09:12:29.639Z,99960.78
2022-11-17T09:14:31.864Z,99958.25
2022-11-17T09:16:35.394Z,99963.94
2022-11-17T09:18:39.182Z,99951.47
2022-11-17T09:20:45.423Z,99951.38
2022-11-17T09:22:47.793Z,99960.78
2022-11-17T09:24:49.704Z,99949.56
2022-11-17T09:26:54.567Z,99954.63
2022-11-17T09:28:56.416Z,99959.59
2022-11-17T09:31:00.369Z,99952.88
2022-11-17T09:33:04.269Z,99961.34
2022-11-17T09:35:09.412Z,99953.50
2022-11-17T09:37:11.341Z,99955.91
2022-11-17T09:39:14.179Z,99960.78
2022-11-17T09:41:16.124Z,99958.44
2022-11-17T09:43:26.723Z,99950.91
2022-11-17T09:45:38.062Z,99945.84
2022-11-17T09:48:18.396Z,99954.28
2022-11-17T09:50:50.845Z,99952.66
2022-11-17T09:53:04.449Z,99958.44
2022-11-17T09:55:09.141Z,99945.13
2022-11-17T09:57:45.834Z,99941.81
2022-11-17T10:00:03.207Z,99935.31
2022-11-17T10:02:10.428Z,99934.22
2022-11-17T10:04:16.993Z,99938.56
2022-11-17T10:06:24.754Z,99935.47
2022-11-17T10:08:40.737Z,99928.81
2022-11-17T10:10:47.874Z,99926.38
2022-11-17T10:12:56.501Z,99928.44
2022-11-17T10:15:18.832Z,99932.63
2022-11-17T10:17:20.728Z,99937.59
2022-11-17T10:19:33.345Z,99940.84
2022-11-17T10:21:37.296Z,99926.63
2022-11-17T10:23:46.869Z,99930.16
2022-11-17T10:25:57.574Z,99924.00
2022-11-17T10:27:59.399Z,99920.22
2022-11-17T10:30:03.341Z,99929.41
2022-11-17T10:32:14.560Z,99921.31
2022-11-17T10:34:41.481Z,99925.97
2022-11-17T10:36:48.564Z,99926.78
2022-11-17T10:38:53.151Z,99924.63
2022-11-17T10:40:58.503Z,99928.75
2022-11-17T10:43:05.381Z,99916.88
2022-11-17T10:45:18.220Z,99931.97
2022-11-17T10:47:40.547Z,99932.63
2022-11-17T10:49:43.483Z,99931.03
2022-11-17T10:52:03.634Z,99933.25
2022-11-17T10:54:17.131Z,99921.84
2022-11-17T10:56:26.366Z,99916.97
2022-11-17T10:58:30.330Z,99915.22
2022-11-17T11:00:37.539Z,99917.75
2022-11-17T11:02:40.621Z,99912.78
2022-11-17T11:04:42.500Z,99914.44
2022-11-17T11:06:44.503Z,99915.94
2022-11-17T11:09:27.679Z,99916.09
2022-11-17T11:11:44.472Z,99916.66
2022-11-17T11:13:54.105Z,99914.59
2022-11-17T11:15:56.047Z,99911.50
2022-11-17T11:17:58.026Z,99910.00
2022-11-17T11:19:59.973Z,99922.66
2022-11-17T11:22:21.523Z,99914.03
2022-11-17T11:24:35.101Z,99911.03
2022-11-17T11:27:01.091Z,99911.81
2022-11-17T11:29:20.654Z,99909.28
2022-11-17T11:31:45.160Z,99916.66
2022-11-17T11:34:11.329Z,99907.38
2022-11-17T11:36:56.743Z,99913.50
2022-11-17T11:38:58.572Z,99908.34
2022-11-17T11:41:11.586Z,99902.03
2022-11-17T11:43:33.948Z,99903.44
2022-11-17T11:46:08.552Z,99908.91
2022-11-17T11:48:20.286Z,99904.63
2022-11-17T11:50:47.216Z,99902.31
2022-11-17T11:52:55.759Z,99903.03
2022-11-17T11:55:03.921Z,99901.59
2022-11-17T11:57:06.587Z,99903.19
2022-11-17T11:59:19.946Z,99904.09
2022-11-17T12:01:23.357Z,99904.38
2022-11-17T12:03:47.096Z,99898.44
2022-11-17T12:06:27.525Z,99900.28
2022-11-17T12:08:46.297Z,99904.00
2022-11-17T12:11:26.907Z,99909.84
2022-11-17T12:13:28.939Z,99905.72
2022-11-17T12:15:34.177Z,99900.41
2022-11-17T12:17:37.506Z,99889.53
2022-11-17T12:20:03.534Z,99890.47
2022-11-17T12:22:08.482Z,99889.75
2022-11-17T12:24:18.909Z,99890.53
2022-11-17T12:26:23.806Z,99886.59
2022-11-17T12:28:40.919Z,99888.22
2022-11-17T12:30:45.715Z,99890.13
2022-11-17T12:32:54.868Z,99884.34
2022-11-17T12:35:36.611Z,99881.75
2022-11-17T12:37:39.057Z,99882.69
2022-11-17T12:40:08.201Z,99884.34
2022-11-17T12:42:10.201Z,99878.50
2022-11-17T12:44:50.576Z,99875.97
2022-11-17T12:47:06.466Z,99871.78
2022-11-17T12:49:24.529Z,99870.34
2022-11-17T12:51:46.574Z,99878.16
2022-11-17T12:53:52.551Z,99873.00
2022-11-17T12:56:10.754Z,99874.91
2022-11-17T12:58:30.237Z,99870.41
2022-11-17T13:00:56.000Z,99862.00
2022-11-17T13:03:04.919Z,99853.47
2022-11-17T13:05:20.325Z,99862.97
2022-11-17T13:07:25.779Z,99859.66
2022-11-17T13:09:31.518Z,99854.41
2022-11-17T13:11:34.393Z,99859.75
2022-11-17T13:13:37.448Z,99861.91
2022-11-17T13:15:43.554Z,99864.34
2022-11-17T13:17:45.982Z,99859.72
2022-11-17T13:19:47.871Z,99864.69
2022-11-17T13:21:57.624Z,99862.44
2022-11-17T13:24:03.358Z,99863.34
2022-11-17T13:26:22.603Z,99866.41
2022-11-17T13:28:32.969Z,99868.00
2022-11-17T13:30:36.259Z,99869.03
2022-11-17T13:32:40.308Z,99863.75
2022-11-17T13:34:53.847Z,99867.75
2022-11-17T13:37:00.531Z,99854.00
2022-11-17T13:39:03.601Z,99863.41
2022-11-17T13:41:06.876Z,99860.34
2022-11-17T13:43:13.932Z,99867.75
2022-11-17T13:45:16.558Z,99860.50
2022-11-17T13:47:27.525Z,99867.59
2022-11-17T13:49:39.507Z,99860.34
2022-11-17T13:51:45.122Z,99855.28
2022-11-17T13:53:49.779Z,99859.22
2022-11-17T13:55:52.917Z,99854.78
2022-11-17T13:58:02.025Z,99857.16
2022-11-17T14:00:05.105Z,99854.31
2022-11-17T14:02:23.248Z,99859.50
2022-11-17T14:04:25.260Z,99852.25
2022-11-17T14:06:57.188Z,99849.72
2022-11-17T14:09:05.725Z,99849.84
2022-11-17T14:11:10.688Z,99844.94
2022-11-17T14:13:38.803Z,99846.19
2022-11-17T14:15:42.973Z,99844.13
2022-11-17T14:17:56.951Z,99837.00
2022-11-17T14:20:18.805Z,99839.44
2022-11-17T14:22:30.812Z,99844.56
2022-11-17T14:24:33.525Z,99839.13
2022-11-17T14:26:41.991Z,99843.63
2022-11-17T14:28:44.008Z,99838.22
2022-11-17T14:30:50.851Z,99847.56
2022-11-17T14:32:53.067Z,99843.22
2022-11-17T14:34:54.948Z,99840.94
2022-11-17T14:36:56.984Z,99846.44
2022-11-17T14:38:59.170Z,99842.06
2022-11-17T14:41:01.058Z,99846.59
2022-11-17T14:43:03.031Z,99853.06
2022-11-17T14:45:05.179Z,99846.09
2022-11-17T14:47:07.031Z,99849.16
2022-11-17T14:49:10.260Z,99844.09
2022-11-17T14:51:15.564Z,99841.94
2022-11-17T14:53:17.475Z,99842.69
2022-11-17T14:55:19.892Z,99837.06
2022-11-17T14:57:21.708Z,99848.03
2022-11-17T14:59:23.929Z,99852.13
2022-11-17T15:01:32.919Z,99849.59
2022-11-17T15:03:35.093Z,99849.56
2022-11-17T15:05:43.757Z,99853.91
2022-11-17T15:07:47.091Z,99850.38
2022-11-17T15:09:50.014Z,99854.88
2022-11-17T15:11:53.047Z,99848.81
2022-11-17T15:13:55.208Z,99844.69
2022-11-17T15:16:03.099Z,99840.44
2022-11-17T15:18:05.181Z,99839.94
2022-11-17T15:20:07.777Z,99843.16
2022-11-17T15:22:10.737Z,99851.34
2022-11-17T15:24:13.963Z,99849.63
2022-11-17T15:26:19.034Z,99850.19
2022-11-17T15:28:23.074Z,99837.81
2022-11-17T15:30:26.119Z,99847.75
2022-11-17T15:32:27.961Z,99838.09
2022-11-17T15:34:29.958Z,99837.53
2022-11-17T15:36:32.187Z,99839.09
2022-11-17T15:38:35.214Z,99840.06
2022-11-17T15:40:37.181Z,99844.91
2022-11-17T15:42:39.139Z,99840.50
2022-11-17T15:44:41.026Z,99842.84
2022-11-17T15:46:47.113Z,99834.72
2022-11-17T15:48:52.606Z,99838.97
2022-11-17T15:50:59.883Z,99833.47
2022-11-17T15:53:04.475Z,99839.66
2022-11-17T15:55:09.124Z,99842.00
2022-11-17T15:57:11.019Z,99846.19
2022-11-17T15:59:13.383Z,99850.75
2022-11-17T16:01:38.951Z,99844.53
2022-11-17T16:03:42.588Z,99852.38
2022-11-17T16:05:45.265Z,99850.06
2022-11-17T16:07:47.159Z,99846.69
2022-11-17T16:09:50.406Z,99848.13
2022-11-17T16:11:52.446Z,99846.28
2022-11-17T16:13:58.642Z,99844.94
2022-11-17T16:16:00.710Z,99849.28
2022-11-17T16:18:02.604Z,99845.09
2022-11-17T16:20:04.927Z,99852.66
2022-11-17T16:22:06.895Z,99844.75
2022-11-17T16:24:11.974Z,99840.28
2022-11-17T16:26:20.189Z,99847.28
2022-11-17T16:28:23.132Z,99838.63
2022-11-17T16:30:32.759Z,99839.81
2022-11-17T16:32:37.199Z,99839.38
2022-11-17T16:34:41.663Z,99836.97
2022-11-17T16:36:44.367Z,99828.97
2022-11-17T16:39:01.840Z,99825.75
2022-11-17T16:41:11.319Z,99826.59
2022-11-17T16:43:13.855Z,99827.63
2022-11-17T16:45:15.815Z,99829.19
2022-11-17T16:47:17.718Z,99832.66
2022-11-17T16:49:20.189Z,99834.47
2022-11-17T16:51:28.012Z,99833.44
2022-11-17T16:53:36.261Z,99837.78
2022-11-17T16:55:39.455Z,99829.47
2022-11-17T16:57:50.970Z,99836.00
2022-11-17T16:59:54.569Z,99834.16
2022-11-17T17:01:57.889Z,99825.19
2022-11-17T17:04:08.027Z,99822.41
2022-11-17T17:06:13.981Z,99813.88
2022-11-17T17:08:16.562Z,99817.69
2022-11-17T17:10:20.479Z,99814.56
2022-11-17T17:12:22.568Z,99823.38
2022-11-17T17:14:25.991Z,99820.69
2022-11-17T17:16:28.041Z,99822.44
2022-11-17T17:18:38.034Z,99815.69
2022-11-17T17:20:40.028Z,99817.72
2022-11-17T17:22:42.333Z,99815.19
2022-11-17T17:24:44.556Z,99812.00
2022-11-17T17:26:46.456Z,99817.03
2022-11-17T17:28:51.269Z,99806.94
2022-11-17T17:30:57.119Z,99811.66
2022-11-17T17:32:59.153Z,99803.38
2022-11-17T17:35:01.091Z,99803.88
2022-11-17T17:37:03.095Z,99802.53
2022-11-17T17:39:07.272Z,99806.06
2022-11-17T17:41:17.851Z,99801.03
2022-11-17T17:43:20.109Z,99794.94
2022-11-17T17:45:22.474Z,99802.22
2022-11-17T17:47:24.692Z,99796.56
2022-11-17T17:49:27.574Z,99792.94
2022-11-17T17:51:32.560Z,99787.72
2022-11-17T17:53:34.798Z,99789.19
2022-11-17T17:55:38.776Z,99788.84
2022-11-17T17:57:41.310Z,99785.28
2022-11-17T17:59:43.694Z,99796.34
2022-11-17T18:01:49.811Z,99792.84
2022-11-17T18:03:55.274Z,99793.09
2022-11-17T18:06:00.483Z,99781.44
2022-11-17T18:08:04.944Z,99782.22
2022-11-17T18:10:07.625Z,99782.09
2022-11-17T18:12:10.223Z,99778.97
2022-11-17T18:14:14.181Z,99774.09
2022-11-17T18:16:26.259Z,99779.34
2022-11-17T18:18:29.532Z,99770.66
2022-11-17T18:20:31.791Z,99771.88
2022-11-17T18:22:39.673Z,99769.81
2022-11-17T18:24:45.150Z,99775.31
2022-11-17T18:26:48.096Z,99775.22
2022-11-17T18:28:55.506Z,99768.34
2022-11-17T18:31:04.388Z,99761.28
2022-11-17T18:33:07.723Z,99769.25
2022-11-17T18:35:09.933Z,99761.28
2022-11-17T18:37:12.250Z,99769.81
2022-11-17T18:39:17.483Z,99766.06
2022-11-17T18:41:21.883Z,99767.34
2022-11-17T18:43:29.958Z,99765.66
2022-11-17T18:45:37.534Z,99758.09
2022-11-17T18:47:39.618Z,99763.75
2022-11-17T18:49:43.010Z,99763.34
2022-11-17T18:51:45.642Z,99769.19
2022-11-17T18:53:52.540Z,99766.06
2022-11-17T18:56:00.642Z,99758.81
2022-11-17T18:58:04.236Z,99755.88
2022-11-17T19:00:07.439Z,99760.81
2022-11-17T19:02:09.866Z,99761.31
2022-11-17T19:04:15.487Z,99755.50
2022-11-17T19:06:19.221Z,99759.34
2022-11-17T19:08:24.578Z,99761.22
2022-11-17T19:10:28.132Z,99763.09
2022-11-17T19:12:31.243Z,99755.00
2022-11-17T19:14:34.122Z,99761.63
2022-11-17T19:16:44.116Z,99756.56
2022-11-17T19:18:49.143Z,99749.97
2022-11-17T19:20:51.514Z,99758.31
2022-11-17T19:22:55.673Z,99748.03
2022-11-17T19:24:59.133Z,99747.50
2022-11-17T19:27:01.549Z,99753.09
2022-11-17T19:29:08.852Z,99756.38
2022-11-17T19:31:19.184Z,99754.66
2022-11-17T19:33:21.599Z,99753.09
2022-11-17T19:35:24.003Z,99751.69
2022-11-17T19:37:27.692Z,99757.53
2022-11-17T19:39:32.065Z,99751.69
2022-11-17T19:41:37.350Z,99750.25
2022-11-17T19:43:45.114Z,99747.44
2022-11-17T19:45:48.111Z,99741.09
2022-11-17T19:47:50.458Z,99738.47
2022-11-17T19:49:52.496Z,99730.56
2022-11-17T19:51:58.382Z,99729.25
2022-11-17T19:54:08.876Z,99726.97
2022-11-17T19:56:11.282Z,99727.44
2022-11-17T19:58:16.698Z,99737.44
2022-11-17T20:00:19.557Z,99741.22
2022-11-17T20:02:21.935Z,99736.03
2022-11-17T20:04:24.366Z,99731.78
2022-11-17T20:06:37.265Z,99728.91
2022-11-17T20:08:39.659Z,99734.66
2022-11-17T20:10:42.868Z,99719.41
2022-11-17T20:12:45.278Z,99726.75
2022-11-17T20:14:48.080Z,99728.56
2022-11-17T20:16:50.468Z,99735.38
2022-11-17T20:19:00.027Z,99740.25
2022-11-17T20:21:06.473Z,99742.69
2022-11-17T20:23:09.029Z,99741.19
2022-11-17T20:25:13.054Z,99734.06
2022-11-17T20:27:15.323Z,99728.25
2022-11-17T20:29:17.945Z,99734.31
2022-11-17T20:31:28.137Z,99736.47
2022-11-17T20:33:30.622Z,99733.00
2022-11-17T20:35:37.217Z,99725.44
2022-11-17T20:37:40.694Z,99721.25
2022-11-17T20:39:44.886Z,99730.31
2022-11-17T20:41:46.944Z,99730.47
2022-11-17T20:43:53.427Z,99723.81
2022-11-17T20:45:57.191Z,99718.25
2022-11-17T20:47:59.480Z,99722.19
2022-11-17T20:50:02.451Z,99713.31
2022-11-17T20:52:07.982Z,99708.97
2022-11-17T20:54:15.770Z,99700.75
2022-11-17T20:56:21.791Z,99703.03
2022-11-17T20:58:27.883Z,99696.59
2022-11-17T21:00:36.996Z,99704.00
2022-11-17T21:02:45.035Z,99703.25
2022-11-17T21:04:49.399Z,99694.53
2022-11-17T21:07:05.667Z,99689.28
2022-11-17T21:09:17.242Z,99697.50
2022-11-17T21:11:39.307Z,99684.94
2022-11-17T21:13:55.823Z,99689.94
2022-11-17T21:16:15.169Z,99691.94
2022-11-17T21:18:24.135Z,99690.72
2022-11-17T21:20:30.506Z,99691.97
2022-11-17T21:22:35.652Z,99685.84
2022-11-17T21:24:41.691Z,99677.88
2022-11-17T21:26:57.427Z,99677.50
2022-11-17T21:29:05.913Z,99677.44
2022-11-17T21:31:29.203Z,99677.94
2022-11-17T21:33:32.269Z,99681.09
2022-11-17T21:35:34.197Z,99677.66
2022-11-17T21:37:39.270Z,99677.66
2022-11-17T21:39:48.407Z,99673.31
2022-11-17T21:42:01.053Z,99674.38
2022-11-17T21:44:03.744Z,99666.94
2022-11-17T21:46:25.989Z,99670.91
2022-11-17T21:48:29.980Z,99657.41
2022-11-17T21:50:32.260Z,99665.34
2022-11-17T21:52:42.391Z,99662.06
2022-11-17T21:54:47.337Z,99657.13
2022-11-17T21:56:55.219Z,99653.09
2022-11-17T21:59:10.892Z,99656.03
2022-11-17T22:01:15.966Z,99655.69
2022-11-17T22:03:18.903Z,99660.88
2022-11-17T22:05:22.868Z,99660.91
2022-11-17T22:07:27.845Z,99661.09
2022-11-17T22:09:31.810Z,99668.16
2022-11-17T22:11:42.685Z,99663.13
2022-11-17T22:13:45.630Z,99656.09
2022-11-17T22:16:13.419Z,99649.59
2022-11-17T22:18:15.287Z,99650.88
2022-11-17T22:20:18.141Z,99653.19
2022-11-17T22:22:26.567Z,99653.31
2022-11-17T22:24:44.402Z,99650.41
2022-11-17T22:26:51.866Z,99650.41
2022-11-17T22:28:55.509Z,99649.06
2022-11-17T22:31:04.522Z,99657.91
2022-11-17T22:33:06.443Z,99658.56
2022-11-17T22:35:10.352Z,99652.34
2022-11-17T22:37:12.308Z,99651.97
2022-11-17T22:39:20.266Z,99640.56
2022-11-17T22:41:24.681Z,99648.13
2022-11-17T22:43:29.389Z,99645.25
2022-11-17T22:45:41.440Z,99638.09
2022-11-17T22:47:43.274Z,99637.69
2022-11-17T22:49:47.169Z,99637.03
2022-11-17T22:52:05.934Z,99636.13
2022-11-17T22:54:20.859Z,99639.44
2022-11-17T22:56:23.668Z,99636.91
2022-11-17T22:58:25.773Z,99631.69
2022-11-17T23:00:29.668Z,99626.56
2022-11-17T23:02:31.641Z,99629.09
2022-11-17T23:04:34.512Z,99623.28
2022-11-17T23:06:38.490Z,99623.56
2022-11-17T23:08:40.541Z,99624.84
2022-11-17T23:10:42.738Z,99633.63
2022-11-17T23:13:01.878Z,99639.22
2022-11-17T23:15:07.732Z,99640.00
2022-11-17T23:17:11.607Z,99637.09
2022-11-17T23:19:14.362Z,99641.16
2022-11-17T23:21:16.180Z,99640.56
2022-11-17T23:23:18.120Z,99636.19
2022-11-17T23:25:20.235Z,99632.97
2022-11-17T23:27:25.158Z,99633.97
2022-11-17T23:29:32.947Z,99637.94
2022-11-17T23:31:35.122Z,99633.91
2022-11-17T23:33:41.072Z,99635.13
2022-11-17T23:35:46.043Z,99633.91
2022-11-17T23:37:51.003Z,99626.56
2022-11-17T23:39:52.888Z,99630.00
2022-11-17T23:41:54.690Z,99632.09
2022-11-17T23:43:56.506Z,99628.22
2022-11-17T23:46:05.452Z,99621.81
2022-11-17T23:48:07.242Z,99626.03
2022-11-17T23:50:16.521Z,99621.97
2022-11-17T23:52:18.495Z,99631.44
2022-11-17T23:54:20.300Z,99631.63
2022-11-17T23:56:23.274Z,99629.09
2022-11-17T23:58:26.126Z,99629.34
